sensor_id;sensor_type;location;lat;lon;timestamp;P1;durP1;ratioP1;P2;durP2;ratioP2
14760;SDS011;7472;45.396;5.272;2023-08-21T00:01:45;8.52;;;5.20;;
14760;SDS011;7472;45.396;5.272;2023-08-21T00:04:13;9.95;;;5.07;;
14760;SDS011;7472;45.396;5.272;2023-08-21T00:06:42;7.03;;;5.00;;
14760;SDS011;7472;45.396;5.272;2023-08-21T00:09:09;9.73;;;5.30;;
14760;SDS011;7472;45.396;5.272;2023-08-21T00:11:36;7.05;;;5.20;;
14760;SDS011;7472;45.396;5.272;2023-08-21T00:14:04;8.80;;;5.22;;
14760;SDS011;7472;45.396;5.272;2023-08-21T00:16:31;7.75;;;5.80;;
14760;SDS011;7472;45.396;5.272;2023-08-21T00:18:59;8.52;;;5.38;;
14760;SDS011;7472;45.396;5.272;2023-08-21T00:21:27;8.40;;;5.65;;
14760;SDS011;7472;45.396;5.272;2023-08-21T00:23:56;8.52;;;5.97;;
14760;SDS011;7472;45.396;5.272;2023-08-21T00:26:23;8.32;;;5.57;;
14760;SDS011;7472;45.396;5.272;2023-08-21T00:28:50;11.30;;;5.25;;
14760;SDS011;7472;45.396;5.272;2023-08-21T00:31:18;6.80;;;4.90;;
14760;SDS011;7472;45.396;5.272;2023-08-21T00:33:45;8.73;;;5.60;;
14760;SDS011;7472;45.396;5.272;2023-08-21T00:36:12;16.50;;;5.78;;
14760;SDS011;7472;45.396;5.272;2023-08-21T00:38:40;10.00;;;5.72;;
14760;SDS011;7472;45.396;5.272;2023-08-21T00:41:09;8.95;;;5.00;;
14760;SDS011;7472;45.396;5.272;2023-08-21T00:43:37;9.60;;;5.95;;
14760;SDS011;7472;45.396;5.272;2023-08-21T00:46:04;10.90;;;5.80;;
14760;SDS011;7472;45.396;5.272;2023-08-21T00:48:32;6.32;;;5.72;;
14760;SDS011;7472;45.396;5.272;2023-08-21T00:51:00;14.15;;;5.65;;
14760;SDS011;7472;45.396;5.272;2023-08-21T00:53:28;9.27;;;5.90;;
14760;SDS011;7472;45.396;5.272;2023-08-21T00:55:55;8.68;;;5.60;;
14760;SDS011;7472;45.396;5.272;2023-08-21T00:58:24;10.07;;;5.53;;
14760;SDS011;7472;45.396;5.272;2023-08-21T01:00:51;9.13;;;5.72;;
14760;SDS011;7472;45.396;5.272;2023-08-21T01:03:19;16.35;;;6.03;;
14760;SDS011;7472;45.396;5.272;2023-08-21T01:05:46;10.57;;;5.85;;
14760;SDS011;7472;45.396;5.272;2023-08-21T01:08:14;9.25;;;5.63;;
14760;SDS011;7472;45.396;5.272;2023-08-21T01:10:45;9.98;;;5.88;;
14760;SDS011;7472;45.396;5.272;2023-08-21T01:13:24;8.30;;;5.55;;
14760;SDS011;7472;45.396;5.272;2023-08-21T01:15:54;12.55;;;5.70;;
14760;SDS011;7472;45.396;5.272;2023-08-21T01:18:22;15.90;;;6.32;;
14760;SDS011;7472;45.396;5.272;2023-08-21T01:20:52;11.73;;;6.65;;
14760;SDS011;7472;45.396;5.272;2023-08-21T01:23:29;9.07;;;6.00;;
14760;SDS011;7472;45.396;5.272;2023-08-21T01:25:57;9.45;;;5.78;;
14760;SDS011;7472;45.396;5.272;2023-08-21T01:28:24;9.90;;;5.07;;
14760;SDS011;7472;45.396;5.272;2023-08-21T01:30:54;8.85;;;5.97;;
14760;SDS011;7472;45.396;5.272;2023-08-21T01:33:22;7.97;;;6.30;;
14760;SDS011;7472;45.396;5.272;2023-08-21T01:35:51;7.00;;;6.00;;
14760;SDS011;7472;45.396;5.272;2023-08-21T01:38:18;9.02;;;5.55;;
14760;SDS011;7472;45.396;5.272;2023-08-21T01:40:48;8.13;;;5.30;;
14760;SDS011;7472;45.396;5.272;2023-08-21T01:43:15;12.23;;;6.18;;
14760;SDS011;7472;45.396;5.272;2023-08-21T01:45:43;8.95;;;5.57;;
14760;SDS011;7472;45.396;5.272;2023-08-21T01:48:11;7.05;;;6.05;;
14760;SDS011;7472;45.396;5.272;2023-08-21T01:50:38;10.50;;;6.28;;
14760;SDS011;7472;45.396;5.272;2023-08-21T01:53:05;9.40;;;5.60;;
14760;SDS011;7472;45.396;5.272;2023-08-21T01:55:33;9.52;;;6.32;;
14760;SDS011;7472;45.396;5.272;2023-08-21T01:58:01;9.75;;;5.63;;
14760;SDS011;7472;45.396;5.272;2023-08-21T02:00:29;9.88;;;5.53;;
14760;SDS011;7472;45.396;5.272;2023-08-21T02:02:56;11.07;;;6.40;;
14760;SDS011;7472;45.396;5.272;2023-08-21T02:05:24;13.45;;;6.55;;
14760;SDS011;7472;45.396;5.272;2023-08-21T02:07:51;8.43;;;6.30;;
14760;SDS011;7472;45.396;5.272;2023-08-21T02:10:18;9.88;;;5.80;;
14760;SDS011;7472;45.396;5.272;2023-08-21T02:12:46;8.75;;;5.85;;
14760;SDS011;7472;45.396;5.272;2023-08-21T02:15:14;9.35;;;6.32;;
14760;SDS011;7472;45.396;5.272;2023-08-21T02:17:42;13.95;;;6.15;;
14760;SDS011;7472;45.396;5.272;2023-08-21T02:20:10;7.93;;;6.20;;
14760;SDS011;7472;45.396;5.272;2023-08-21T02:22:37;7.60;;;6.07;;
14760;SDS011;7472;45.396;5.272;2023-08-21T02:25:05;12.07;;;5.90;;
14760;SDS011;7472;45.396;5.272;2023-08-21T02:27:33;9.52;;;6.47;;
14760;SDS011;7472;45.396;5.272;2023-08-21T02:30:00;7.35;;;5.97;;
14760;SDS011;7472;45.396;5.272;2023-08-21T02:32:29;7.90;;;5.78;;
14760;SDS011;7472;45.396;5.272;2023-08-21T02:34:57;8.57;;;6.35;;
14760;SDS011;7472;45.396;5.272;2023-08-21T02:37:24;10.88;;;6.35;;
14760;SDS011;7472;45.396;5.272;2023-08-21T02:39:51;10.82;;;6.00;;
14760;SDS011;7472;45.396;5.272;2023-08-21T02:42:19;10.05;;;5.72;;
14760;SDS011;7472;45.396;5.272;2023-08-21T02:44:46;10.75;;;6.28;;
14760;SDS011;7472;45.396;5.272;2023-08-21T02:47:13;8.65;;;5.93;;
14760;SDS011;7472;45.396;5.272;2023-08-21T02:49:42;13.50;;;6.55;;
14760;SDS011;7472;45.396;5.272;2023-08-21T02:52:10;10.73;;;6.50;;
14760;SDS011;7472;45.396;5.272;2023-08-21T02:54:37;12.68;;;6.30;;
14760;SDS011;7472;45.396;5.272;2023-08-21T02:57:05;8.68;;;6.10;;
14760;SDS011;7472;45.396;5.272;2023-08-21T02:59:32;8.80;;;6.43;;
14760;SDS011;7472;45.396;5.272;2023-08-21T03:02:00;10.10;;;6.45;;
14760;SDS011;7472;45.396;5.272;2023-08-21T03:04:27;11.18;;;6.72;;
14760;SDS011;7472;45.396;5.272;2023-08-21T03:06:56;9.40;;;6.30;;
14760;SDS011;7472;45.396;5.272;2023-08-21T03:09:23;11.32;;;5.93;;
14760;SDS011;7472;45.396;5.272;2023-08-21T03:11:51;11.45;;;6.72;;
14760;SDS011;7472;45.396;5.272;2023-08-21T03:14:18;9.05;;;5.80;;
14760;SDS011;7472;45.396;5.272;2023-08-21T03:16:45;10.60;;;6.55;;
14760;SDS011;7472;45.396;5.272;2023-08-21T03:19:13;10.82;;;6.00;;
14760;SDS011;7472;45.396;5.272;2023-08-21T03:21:40;16.20;;;5.88;;
14760;SDS011;7472;45.396;5.272;2023-08-21T03:24:09;7.20;;;6.03;;
14760;SDS011;7472;45.396;5.272;2023-08-21T03:26:36;13.77;;;6.10;;
14760;SDS011;7472;45.396;5.272;2023-08-21T03:29:04;10.98;;;6.43;;
14760;SDS011;7472;45.396;5.272;2023-08-21T03:31:31;12.07;;;6.57;;
14760;SDS011;7472;45.396;5.272;2023-08-21T03:33:58;11.57;;;6.15;;
14760;SDS011;7472;45.396;5.272;2023-08-21T03:36:26;14.88;;;5.60;;
14760;SDS011;7472;45.396;5.272;2023-08-21T03:38:57;9.50;;;6.53;;
14760;SDS011;7472;45.396;5.272;2023-08-21T03:41:25;10.13;;;5.80;;
14760;SDS011;7472;45.396;5.272;2023-08-21T03:43:53;11.25;;;6.47;;
14760;SDS011;7472;45.396;5.272;2023-08-21T03:46:20;7.35;;;5.95;;
14760;SDS011;7472;45.396;5.272;2023-08-21T03:48:47;10.75;;;6.20;;
14760;SDS011;7472;45.396;5.272;2023-08-21T03:51:15;7.35;;;5.57;;
14760;SDS011;7472;45.396;5.272;2023-08-21T03:53:43;11.43;;;5.93;;
14760;SDS011;7472;45.396;5.272;2023-08-21T03:56:10;7.68;;;5.68;;
14760;SDS011;7472;45.396;5.272;2023-08-21T03:58:39;7.70;;;5.70;;
14760;SDS011;7472;45.396;5.272;2023-08-21T04:01:06;11.18;;;6.35;;
14760;SDS011;7472;45.396;5.272;2023-08-21T04:03:33;12.20;;;5.55;;
14760;SDS011;7472;45.396;5.272;2023-08-21T04:06:01;7.65;;;5.43;;
14760;SDS011;7472;45.396;5.272;2023-08-21T04:08:28;8.93;;;5.85;;
14760;SDS011;7472;45.396;5.272;2023-08-21T04:10:56;12.75;;;5.57;;
14760;SDS011;7472;45.396;5.272;2023-08-21T04:13:25;6.80;;;5.65;;
14760;SDS011;7472;45.396;5.272;2023-08-21T04:15:54;7.85;;;5.43;;
14760;SDS011;7472;45.396;5.272;2023-08-21T04:18:21;11.07;;;5.32;;
14760;SDS011;7472;45.396;5.272;2023-08-21T04:20:49;8.00;;;5.25;;
14760;SDS011;7472;45.396;5.272;2023-08-21T04:23:17;9.13;;;5.70;;
14760;SDS011;7472;45.396;5.272;2023-08-21T04:25:44;8.63;;;5.68;;
14760;SDS011;7472;45.396;5.272;2023-08-21T04:28:11;9.68;;;5.47;;
14760;SDS011;7472;45.396;5.272;2023-08-21T04:30:39;10.95;;;6.20;;
14760;SDS011;7472;45.396;5.272;2023-08-21T04:33:08;6.20;;;5.60;;
14760;SDS011;7472;45.396;5.272;2023-08-21T04:35:36;9.02;;;5.57;;
14760;SDS011;7472;45.396;5.272;2023-08-21T04:38:04;10.18;;;5.88;;
14760;SDS011;7472;45.396;5.272;2023-08-21T04:40:32;10.68;;;5.50;;
14760;SDS011;7472;45.396;5.272;2023-08-21T04:42:59;7.68;;;5.88;;
14760;SDS011;7472;45.396;5.272;2023-08-21T04:45:27;10.23;;;5.82;;
14760;SDS011;7472;45.396;5.272;2023-08-21T04:47:54;8.77;;;5.50;;
14760;SDS011;7472;45.396;5.272;2023-08-21T04:50:23;14.23;;;6.05;;
14760;SDS011;7472;45.396;5.272;2023-08-21T04:52:50;14.52;;;5.43;;
14760;SDS011;7472;45.396;5.272;2023-08-21T04:55:18;13.52;;;5.63;;
14760;SDS011;7472;45.396;5.272;2023-08-21T04:57:45;11.00;;;5.65;;
14760;SDS011;7472;45.396;5.272;2023-08-21T05:00:13;12.10;;;5.13;;
14760;SDS011;7472;45.396;5.272;2023-08-21T05:02:41;11.80;;;5.95;;
14760;SDS011;7472;45.396;5.272;2023-08-21T05:05:09;9.48;;;5.18;;
14760;SDS011;7472;45.396;5.272;2023-08-21T05:07:37;14.10;;;5.80;;
14760;SDS011;7472;45.396;5.272;2023-08-21T05:10:05;12.05;;;5.47;;
14760;SDS011;7472;45.396;5.272;2023-08-21T05:12:33;13.90;;;5.72;;
14760;SDS011;7472;45.396;5.272;2023-08-21T05:15:00;18.63;;;6.07;;
14760;SDS011;7472;45.396;5.272;2023-08-21T05:17:27;14.40;;;5.97;;
14760;SDS011;7472;45.396;5.272;2023-08-21T05:19:56;12.95;;;5.70;;
14760;SDS011;7472;45.396;5.272;2023-08-21T05:22:23;9.40;;;5.57;;
14760;SDS011;7472;45.396;5.272;2023-08-21T05:24:52;15.20;;;5.95;;
14760;SDS011;7472;45.396;5.272;2023-08-21T05:27:19;13.10;;;5.72;;
14760;SDS011;7472;45.396;5.272;2023-08-21T05:29:47;13.60;;;5.55;;
14760;SDS011;7472;45.396;5.272;2023-08-21T05:32:16;9.30;;;5.78;;
14760;SDS011;7472;45.396;5.272;2023-08-21T05:34:43;10.57;;;5.70;;
14760;SDS011;7472;45.396;5.272;2023-08-21T05:37:11;14.23;;;6.68;;
14760;SDS011;7472;45.396;5.272;2023-08-21T05:39:38;9.77;;;5.85;;
14760;SDS011;7472;45.396;5.272;2023-08-21T05:42:07;9.82;;;6.18;;
14760;SDS011;7472;45.396;5.272;2023-08-21T05:44:34;10.27;;;5.10;;
14760;SDS011;7472;45.396;5.272;2023-08-21T05:47:02;10.32;;;5.53;;
14760;SDS011;7472;45.396;5.272;2023-08-21T05:49:29;8.07;;;5.40;;
14760;SDS011;7472;45.396;5.272;2023-08-21T05:51:57;16.77;;;5.85;;
14760;SDS011;7472;45.396;5.272;2023-08-21T05:54:24;12.30;;;5.63;;
14760;SDS011;7472;45.396;5.272;2023-08-21T05:56:52;8.63;;;5.40;;
14760;SDS011;7472;45.396;5.272;2023-08-21T05:59:30;11.55;;;5.90;;
14760;SDS011;7472;45.396;5.272;2023-08-21T06:01:58;12.20;;;6.10;;
14760;SDS011;7472;45.396;5.272;2023-08-21T06:04:25;10.25;;;5.80;;
14760;SDS011;7472;45.396;5.272;2023-08-21T06:06:53;11.45;;;6.30;;
14760;SDS011;7472;45.396;5.272;2023-08-21T06:09:20;8.00;;;5.80;;
14760;SDS011;7472;45.396;5.272;2023-08-21T06:11:47;9.63;;;6.05;;
14760;SDS011;7472;45.396;5.272;2023-08-21T06:14:15;9.32;;;5.65;;
14760;SDS011;7472;45.396;5.272;2023-08-21T06:16:44;9.52;;;6.20;;
14760;SDS011;7472;45.396;5.272;2023-08-21T06:19:11;13.38;;;5.22;;
14760;SDS011;7472;45.396;5.272;2023-08-21T06:21:38;9.95;;;5.32;;
14760;SDS011;7472;45.396;5.272;2023-08-21T06:24:06;7.88;;;5.68;;
14760;SDS011;7472;45.396;5.272;2023-08-21T06:26:33;9.48;;;5.50;;
14760;SDS011;7472;45.396;5.272;2023-08-21T06:29:00;9.60;;;5.28;;
14760;SDS011;7472;45.396;5.272;2023-08-21T06:31:28;10.25;;;5.85;;
14760;SDS011;7472;45.396;5.272;2023-08-21T06:33:56;10.50;;;5.32;;
14760;SDS011;7472;45.396;5.272;2023-08-21T06:36:24;8.90;;;6.07;;
14760;SDS011;7472;45.396;5.272;2023-08-21T06:38:51;13.10;;;6.75;;
14760;SDS011;7472;45.396;5.272;2023-08-21T06:41:18;11.40;;;6.00;;
14760;SDS011;7472;45.396;5.272;2023-08-21T06:43:46;11.07;;;5.95;;
14760;SDS011;7472;45.396;5.272;2023-08-21T06:46:13;9.75;;;6.10;;
14760;SDS011;7472;45.396;5.272;2023-08-21T06:48:41;13.95;;;5.88;;
14760;SDS011;7472;45.396;5.272;2023-08-21T06:51:10;12.38;;;5.97;;
14760;SDS011;7472;45.396;5.272;2023-08-21T06:53:38;10.82;;;5.72;;
14760;SDS011;7472;45.396;5.272;2023-08-21T06:56:05;10.65;;;6.13;;
14760;SDS011;7472;45.396;5.272;2023-08-21T06:58:32;13.70;;;6.05;;
14760;SDS011;7472;45.396;5.272;2023-08-21T07:01:00;11.43;;;6.63;;
14760;SDS011;7472;45.396;5.272;2023-08-21T07:03:27;10.60;;;6.00;;
14760;SDS011;7472;45.396;5.272;2023-08-21T07:05:55;8.90;;;6.15;;
14760;SDS011;7472;45.396;5.272;2023-08-21T07:08:24;11.30;;;6.78;;
14760;SDS011;7472;45.396;5.272;2023-08-21T07:10:52;7.80;;;6.65;;
14760;SDS011;7472;45.396;5.272;2023-08-21T07:13:19;11.10;;;6.78;;
14760;SDS011;7472;45.396;5.272;2023-08-21T07:15:47;9.93;;;7.03;;
14760;SDS011;7472;45.396;5.272;2023-08-21T07:18:14;10.30;;;6.95;;
14760;SDS011;7472;45.396;5.272;2023-08-21T07:20:41;11.60;;;6.90;;
14760;SDS011;7472;45.396;5.272;2023-08-21T07:23:09;11.48;;;7.13;;
14760;SDS011;7472;45.396;5.272;2023-08-21T07:25:38;8.90;;;6.22;;
14760;SDS011;7472;45.396;5.272;2023-08-21T07:28:05;9.57;;;6.97;;
14760;SDS011;7472;45.396;5.272;2023-08-21T07:30:32;8.35;;;6.45;;
14760;SDS011;7472;45.396;5.272;2023-08-21T07:33:00;12.43;;;6.50;;
14760;SDS011;7472;45.396;5.272;2023-08-21T07:35:27;14.77;;;6.70;;
14760;SDS011;7472;45.396;5.272;2023-08-21T07:37:54;8.05;;;6.55;;
14760;SDS011;7472;45.396;5.272;2023-08-21T07:40:22;11.25;;;7.20;;
14760;SDS011;7472;45.396;5.272;2023-08-21T07:42:51;10.05;;;7.22;;
14760;SDS011;7472;45.396;5.272;2023-08-21T07:45:18;9.60;;;6.50;;
14760;SDS011;7472;45.396;5.272;2023-08-21T07:47:46;10.45;;;6.88;;
14760;SDS011;7472;45.396;5.272;2023-08-21T07:50:13;11.15;;;6.00;;
14760;SDS011;7472;45.396;5.272;2023-08-21T07:52:42;8.88;;;6.50;;
14760;SDS011;7472;45.396;5.272;2023-08-21T07:55:09;11.38;;;6.03;;
14760;SDS011;7472;45.396;5.272;2023-08-21T07:57:36;10.40;;;5.82;;
14760;SDS011;7472;45.396;5.272;2023-08-21T08:00:06;9.95;;;6.07;;
14760;SDS011;7472;45.396;5.272;2023-08-21T08:02:34;8.57;;;5.55;;
14760;SDS011;7472;45.396;5.272;2023-08-21T08:05:02;9.25;;;6.10;;
14760;SDS011;7472;45.396;5.272;2023-08-21T08:07:29;8.35;;;6.10;;
14760;SDS011;7472;45.396;5.272;2023-08-21T08:09:56;10.10;;;6.22;;
14760;SDS011;7472;45.396;5.272;2023-08-21T08:12:24;9.05;;;6.28;;
14760;SDS011;7472;45.396;5.272;2023-08-21T08:14:51;10.30;;;5.95;;
14760;SDS011;7472;45.396;5.272;2023-08-21T08:17:20;12.63;;;6.75;;
14760;SDS011;7472;45.396;5.272;2023-08-21T08:19:47;14.05;;;6.80;;
14760;SDS011;7472;45.396;5.272;2023-08-21T08:22:15;12.65;;;6.72;;
14760;SDS011;7472;45.396;5.272;2023-08-21T08:24:42;11.75;;;7.45;;
14760;SDS011;7472;45.396;5.272;2023-08-21T08:27:09;11.90;;;6.72;;
14760;SDS011;7472;45.396;5.272;2023-08-21T08:29:37;9.85;;;6.25;;
14760;SDS011;7472;45.396;5.272;2023-08-21T08:32:05;9.82;;;6.60;;
14760;SDS011;7472;45.396;5.272;2023-08-21T08:34:34;8.40;;;5.32;;
14760;SDS011;7472;45.396;5.272;2023-08-21T08:37:01;9.10;;;6.30;;
14760;SDS011;7472;45.396;5.272;2023-08-21T08:39:28;12.48;;;6.53;;
14760;SDS011;7472;45.396;5.272;2023-08-21T08:41:56;10.25;;;6.10;;
14760;SDS011;7472;45.396;5.272;2023-08-21T08:44:25;9.95;;;6.20;;
14760;SDS011;7472;45.396;5.272;2023-08-21T08:46:53;11.68;;;6.90;;
14760;SDS011;7472;45.396;5.272;2023-08-21T08:49:21;11.82;;;6.55;;
14760;SDS011;7472;45.396;5.272;2023-08-21T08:51:50;8.98;;;6.38;;
14760;SDS011;7472;45.396;5.272;2023-08-21T08:54:19;8.88;;;6.22;;
14760;SDS011;7472;45.396;5.272;2023-08-21T08:56:46;9.80;;;6.57;;
14760;SDS011;7472;45.396;5.272;2023-08-21T08:59:14;10.25;;;5.88;;
14760;SDS011;7472;45.396;5.272;2023-08-21T09:01:41;8.15;;;5.72;;
14760;SDS011;7472;45.396;5.272;2023-08-21T09:04:09;10.55;;;6.63;;
14760;SDS011;7472;45.396;5.272;2023-08-21T09:06:36;8.27;;;6.70;;
14760;SDS011;7472;45.396;5.272;2023-08-21T09:09:06;6.05;;;5.47;;
14760;SDS011;7472;45.396;5.272;2023-08-21T09:11:35;7.75;;;5.70;;
14760;SDS011;7472;45.396;5.272;2023-08-21T09:14:03;8.07;;;5.70;;
14760;SDS011;7472;45.396;5.272;2023-08-21T09:16:30;9.93;;;6.10;;
14760;SDS011;7472;45.396;5.272;2023-08-21T09:18:58;9.27;;;6.50;;
14760;SDS011;7472;45.396;5.272;2023-08-21T09:21:25;10.60;;;5.80;;
14760;SDS011;7472;45.396;5.272;2023-08-21T09:23:56;7.07;;;5.47;;
14760;SDS011;7472;45.396;5.272;2023-08-21T09:26:25;8.65;;;6.15;;
14760;SDS011;7472;45.396;5.272;2023-08-21T09:28:53;9.18;;;5.80;;
14760;SDS011;7472;45.396;5.272;2023-08-21T09:31:23;9.32;;;5.78;;
14760;SDS011;7472;45.396;5.272;2023-08-21T09:33:57;9.25;;;5.68;;
14760;SDS011;7472;45.396;5.272;2023-08-21T09:36:25;11.13;;;6.50;;
14760;SDS011;7472;45.396;5.272;2023-08-21T09:38:53;10.73;;;5.95;;
14760;SDS011;7472;45.396;5.272;2023-08-21T09:41:21;9.13;;;6.10;;
14760;SDS011;7472;45.396;5.272;2023-08-21T09:43:50;13.50;;;6.63;;
14760;SDS011;7472;45.396;5.272;2023-08-21T09:46:23;8.18;;;6.28;;
14760;SDS011;7472;45.396;5.272;2023-08-21T09:48:52;11.05;;;5.80;;
14760;SDS011;7472;45.396;5.272;2023-08-21T09:51:19;9.43;;;6.20;;
14760;SDS011;7472;45.396;5.272;2023-08-21T09:53:47;9.48;;;5.35;;
14760;SDS011;7472;45.396;5.272;2023-08-21T09:56:16;11.13;;;5.95;;
14760;SDS011;7472;45.396;5.272;2023-08-21T09:58:44;8.48;;;5.90;;
14760;SDS011;7472;45.396;5.272;2023-08-21T10:01:14;11.25;;;5.90;;
14760;SDS011;7472;45.396;5.272;2023-08-21T10:03:43;8.30;;;5.57;;
14760;SDS011;7472;45.396;5.272;2023-08-21T10:06:12;6.32;;;5.22;;
14760;SDS011;7472;45.396;5.272;2023-08-21T10:08:43;9.55;;;5.35;;
14760;SDS011;7472;45.396;5.272;2023-08-21T10:11:12;6.40;;;5.80;;
14760;SDS011;7472;45.396;5.272;2023-08-21T10:13:40;11.57;;;5.68;;
14760;SDS011;7472;45.396;5.272;2023-08-21T10:16:08;5.40;;;4.90;;
14760;SDS011;7472;45.396;5.272;2023-08-21T10:18:41;6.70;;;4.70;;
14760;SDS011;7472;45.396;5.272;2023-08-21T10:21:10;8.40;;;4.90;;
14760;SDS011;7472;45.396;5.272;2023-08-21T10:23:38;15.02;;;5.07;;
14760;SDS011;7472;45.396;5.272;2023-08-21T10:26:07;5.70;;;4.40;;
14760;SDS011;7472;45.396;5.272;2023-08-21T10:28:41;7.30;;;4.70;;
14760;SDS011;7472;45.396;5.272;2023-08-21T10:34:06;9.68;;;5.07;;
14760;SDS011;7472;45.396;5.272;2023-08-21T10:36:37;7.72;;;4.95;;
14760;SDS011;7472;45.396;5.272;2023-08-21T10:39:04;8.63;;;4.88;;
14760;SDS011;7472;45.396;5.272;2023-08-21T10:41:31;5.95;;;4.88;;
14760;SDS011;7472;45.396;5.272;2023-08-21T10:43:58;8.50;;;4.93;;
14760;SDS011;7472;45.396;5.272;2023-08-21T10:46:27;11.52;;;5.07;;
14760;SDS011;7472;45.396;5.272;2023-08-21T10:49:01;7.13;;;5.38;;
14760;SDS011;7472;45.396;5.272;2023-08-21T10:51:30;9.40;;;4.82;;
14760;SDS011;7472;45.396;5.272;2023-08-21T10:54:05;6.85;;;4.68;;
14760;SDS011;7472;45.396;5.272;2023-08-21T10:56:37;7.68;;;5.15;;
14760;SDS011;7472;45.396;5.272;2023-08-21T10:59:04;8.65;;;4.70;;
14760;SDS011;7472;45.396;5.272;2023-08-21T11:01:41;5.40;;;4.50;;
14760;SDS011;7472;45.396;5.272;2023-08-21T11:04:09;7.60;;;5.13;;
14760;SDS011;7472;45.396;5.272;2023-08-21T11:06:39;10.73;;;5.65;;
14760;SDS011;7472;45.396;5.272;2023-08-21T11:09:12;8.05;;;5.10;;
14760;SDS011;7472;45.396;5.272;2023-08-21T11:11:39;7.43;;;5.28;;
14760;SDS011;7472;45.396;5.272;2023-08-21T11:14:07;7.20;;;4.88;;
14760;SDS011;7472;45.396;5.272;2023-08-21T11:16:34;6.47;;;4.57;;
14760;SDS011;7472;45.396;5.272;2023-08-21T11:19:03;6.07;;;4.50;;
14760;SDS011;7472;45.396;5.272;2023-08-21T11:21:31;11.05;;;5.18;;
14760;SDS011;7472;45.396;5.272;2023-08-21T11:24:00;7.28;;;5.22;;
14760;SDS011;7472;45.396;5.272;2023-08-21T11:26:27;6.50;;;4.10;;
14760;SDS011;7472;45.396;5.272;2023-08-21T11:28:54;12.52;;;5.25;;
14760;SDS011;7472;45.396;5.272;2023-08-21T11:31:22;7.00;;;4.93;;
14760;SDS011;7472;45.396;5.272;2023-08-21T11:33:50;6.55;;;4.90;;
14760;SDS011;7472;45.396;5.272;2023-08-21T11:36:17;5.30;;;4.78;;
14760;SDS011;7472;45.396;5.272;2023-08-21T11:38:57;6.35;;;4.70;;
14760;SDS011;7472;45.396;5.272;2023-08-21T11:41:26;9.65;;;4.47;;
14760;SDS011;7472;45.396;5.272;2023-08-21T11:43:57;7.13;;;4.55;;
14760;SDS011;7472;45.396;5.272;2023-08-21T11:46:28;7.85;;;4.30;;
14760;SDS011;7472;45.396;5.272;2023-08-21T11:48:55;5.95;;;3.70;;
14760;SDS011;7472;45.396;5.272;2023-08-21T11:51:23;4.80;;;4.40;;
14760;SDS011;7472;45.396;5.272;2023-08-21T11:53:50;4.47;;;4.07;;
14760;SDS011;7472;45.396;5.272;2023-08-21T11:56:19;4.78;;;4.30;;
14760;SDS011;7472;45.396;5.272;2023-08-21T11:58:47;8.40;;;4.20;;
14760;SDS011;7472;45.396;5.272;2023-08-21T12:01:16;10.52;;;4.07;;
14760;SDS011;7472;45.396;5.272;2023-08-21T12:03:43;5.53;;;4.20;;
14760;SDS011;7472;45.396;5.272;2023-08-21T12:06:11;7.75;;;3.75;;
14760;SDS011;7472;45.396;5.272;2023-08-21T12:08:39;7.70;;;4.03;;
14760;SDS011;7472;45.396;5.272;2023-08-21T12:11:06;8.93;;;4.65;;
14760;SDS011;7472;45.396;5.272;2023-08-21T12:13:34;7.00;;;3.90;;
14760;SDS011;7472;45.396;5.272;2023-08-21T12:16:02;6.43;;;4.57;;
14760;SDS011;7472;45.396;5.272;2023-08-21T12:18:30;6.20;;;4.40;;
14760;SDS011;7472;45.396;5.272;2023-08-21T12:20:57;5.35;;;3.67;;
14760;SDS011;7472;45.396;5.272;2023-08-21T12:23:25;6.50;;;3.50;;
14760;SDS011;7472;45.396;5.272;2023-08-21T12:25:52;6.28;;;3.95;;
14760;SDS011;7472;45.396;5.272;2023-08-21T12:28:19;9.00;;;4.15;;
14760;SDS011;7472;45.396;5.272;2023-08-21T12:30:47;4.95;;;3.65;;
14760;SDS011;7472;45.396;5.272;2023-08-21T12:33:16;6.05;;;3.90;;
14760;SDS011;7472;45.396;5.272;2023-08-21T12:35:43;7.68;;;3.92;;
14760;SDS011;7472;45.396;5.272;2023-08-21T12:38:11;7.63;;;4.25;;
14760;SDS011;7472;45.396;5.272;2023-08-21T12:40:39;4.80;;;3.97;;
14760;SDS011;7472;45.396;5.272;2023-08-21T12:43:06;4.43;;;3.90;;
14760;SDS011;7472;45.396;5.272;2023-08-21T12:45:35;8.15;;;3.90;;
14760;SDS011;7472;45.396;5.272;2023-08-21T12:48:03;6.43;;;3.85;;
14760;SDS011;7472;45.396;5.272;2023-08-21T12:50:32;6.90;;;3.47;;
14760;SDS011;7472;45.396;5.272;2023-08-21T12:52:59;5.18;;;3.17;;
14760;SDS011;7472;45.396;5.272;2023-08-21T12:55:27;7.30;;;3.65;;
14760;SDS011;7472;45.396;5.272;2023-08-21T12:57:55;5.70;;;4.00;;
14760;SDS011;7472;45.396;5.272;2023-08-21T13:00:23;4.78;;;3.40;;
14760;SDS011;7472;45.396;5.272;2023-08-21T13:02:50;4.57;;;3.30;;
14760;SDS011;7472;45.396;5.272;2023-08-21T13:05:17;6.20;;;3.38;;
14760;SDS011;7472;45.396;5.272;2023-08-21T13:07:46;6.72;;;3.67;;
14760;SDS011;7472;45.396;5.272;2023-08-21T13:10:14;6.68;;;3.25;;
14760;SDS011;7472;45.396;5.272;2023-08-21T13:12:41;6.00;;;3.63;;
14760;SDS011;7472;45.396;5.272;2023-08-21T13:15:09;6.78;;;3.67;;
14760;SDS011;7472;45.396;5.272;2023-08-21T13:17:36;6.00;;;3.47;;
14760;SDS011;7472;45.396;5.272;2023-08-21T13:20:04;5.68;;;3.03;;
14760;SDS011;7472;45.396;5.272;2023-08-21T13:22:43;5.35;;;3.30;;
14760;SDS011;7472;45.396;5.272;2023-08-21T13:25:12;5.38;;;2.88;;
14760;SDS011;7472;45.396;5.272;2023-08-21T13:27:40;4.50;;;3.40;;
14760;SDS011;7472;45.396;5.272;2023-08-21T13:30:08;4.75;;;3.10;;
14760;SDS011;7472;45.396;5.272;2023-08-21T13:32:35;3.83;;;3.05;;
14760;SDS011;7472;45.396;5.272;2023-08-21T13:35:03;6.45;;;2.78;;
14760;SDS011;7472;45.396;5.272;2023-08-21T13:37:32;9.45;;;3.03;;
14760;SDS011;7472;45.396;5.272;2023-08-21T13:39:59;8.90;;;3.25;;
14760;SDS011;7472;45.396;5.272;2023-08-21T13:42:35;5.38;;;2.95;;
14760;SDS011;7472;45.396;5.272;2023-08-21T13:45:06;6.30;;;3.05;;
14760;SDS011;7472;45.396;5.272;2023-08-21T13:47:34;5.70;;;2.85;;
14760;SDS011;7472;45.396;5.272;2023-08-21T13:50:01;3.45;;;2.78;;
14760;SDS011;7472;45.396;5.272;2023-08-21T13:52:30;6.90;;;2.85;;
14760;SDS011;7472;45.396;5.272;2023-08-21T13:54:58;4.32;;;2.40;;
14760;SDS011;7472;45.396;5.272;2023-08-21T13:57:25;5.28;;;2.78;;
14760;SDS011;7472;45.396;5.272;2023-08-21T13:59:54;6.90;;;2.88;;
14760;SDS011;7472;45.396;5.272;2023-08-21T14:02:21;5.65;;;2.50;;
14760;SDS011;7472;45.396;5.272;2023-08-21T14:04:49;3.88;;;2.20;;
14760;SDS011;7472;45.396;5.272;2023-08-21T14:07:16;4.70;;;2.83;;
14760;SDS011;7472;45.396;5.272;2023-08-21T14:09:44;4.13;;;2.17;;
14760;SDS011;7472;45.396;5.272;2023-08-21T14:12:11;4.28;;;2.03;;
14760;SDS011;7472;45.396;5.272;2023-08-21T14:14:38;2.80;;;2.20;;
14760;SDS011;7472;45.396;5.272;2023-08-21T14:17:07;2.60;;;2.17;;
14760;SDS011;7472;45.396;5.272;2023-08-21T14:19:35;5.15;;;2.20;;
14760;SDS011;7472;45.396;5.272;2023-08-21T14:22:02;3.70;;;1.80;;
14760;SDS011;7472;45.396;5.272;2023-08-21T14:24:30;3.42;;;1.70;;
14760;SDS011;7472;45.396;5.272;2023-08-21T14:26:57;2.90;;;1.95;;
14760;SDS011;7472;45.396;5.272;2023-08-21T14:29:24;4.10;;;2.00;;
14760;SDS011;7472;45.396;5.272;2023-08-21T14:31:52;3.20;;;2.00;;
14760;SDS011;7472;45.396;5.272;2023-08-21T14:34:21;4.15;;;2.00;;
14760;SDS011;7472;45.396;5.272;2023-08-21T14:36:48;6.97;;;2.40;;
14760;SDS011;7472;45.396;5.272;2023-08-21T14:39:15;3.30;;;2.17;;
14760;SDS011;7472;45.396;5.272;2023-08-21T14:41:43;4.18;;;1.98;;
14760;SDS011;7472;45.396;5.272;2023-08-21T14:44:11;3.85;;;1.90;;
14760;SDS011;7472;45.396;5.272;2023-08-21T14:46:40;2.72;;;1.92;;
14760;SDS011;7472;45.396;5.272;2023-08-21T14:49:07;3.83;;;2.22;;
14760;SDS011;7472;45.396;5.272;2023-08-21T14:51:36;1.77;;;1.67;;
14760;SDS011;7472;45.396;5.272;2023-08-21T14:54:03;5.55;;;2.30;;
14760;SDS011;7472;45.396;5.272;2023-08-21T14:56:31;5.68;;;2.50;;
14760;SDS011;7472;45.396;5.272;2023-08-21T14:58:58;3.33;;;1.98;;
14760;SDS011;7472;45.396;5.272;2023-08-21T15:01:26;2.53;;;1.80;;
14760;SDS011;7472;45.396;5.272;2023-08-21T15:03:53;3.10;;;2.35;;
14760;SDS011;7472;45.396;5.272;2023-08-21T15:06:20;3.15;;;2.20;;